Time;durP1;ratioP1;P1;durP2;ratioP2;P2;SDS_P1;SDS_P2;PMS_P1;PMS_P2;Temp;Humidity;BMP_temperature;BMP_pressure;BME280_temperature;BME280_humidity;BME280_pressure;Samples;Min_cycle;Max_cycle;Signal;HPM_P1;HPM_P2
2023/09/29 07:12:12;;;;;;;6.18;2.20;;;;;;;26.18;100.00;101324.59;20982256;27;20897;-69
2023/09/29 07:22:35;;;;;;;8.52;2.33;;;;;;;27.43;100.00;101324.72;21049101;28;20553;-70
2023/09/29 07:33:01;;;;;;;11.05;2.28;;;;;;;28.10;100.00;101314.31;20959895;28;20053;-70
2023/09/29 07:43:24;;;;;;;8.35;1.80;;;;;;;28.54;100.00;101323.06;21003284;28;20056;-70
2023/09/29 07:53:48;;;;;;;10.68;1.30;;;;;;;28.78;100.00;101326.38;20976737;28;20492;-70
2023/09/29 08:04:11;;;;;;;7.85;1.88;;;;;;;28.50;100.00;101337.72;20952227;28;20130;-70
2023/09/29 08:14:35;;;;;;;7.40;2.10;;;;;;;28.32;100.00;101329.59;20971914;28;20048;-70
2023/09/29 08:24:58;;;;;;;4.63;1.85;;;;;;;28.81;100.00;101342.56;20965586;28;20090;-70
2023/09/29 08:35:22;;;;;;;8.27;2.40;;;;;;;29.22;100.00;101348.56;20967508;28;20049;-70
2023/09/29 08:45:49;;;;;;;8.23;2.33;;;;;;;30.09;100.00;101349.31;20943605;28;20044;-70
2023/09/29 08:56:16;;;;;;;6.72;2.25;;;;;;;29.11;100.00;101350.06;20987842;28;20105;-70
2023/09/29 09:06:40;;;;;;;8.68;2.30;;;;;;;29.46;100.00;101346.41;20943012;28;20075;-69
2023/09/29 09:17:04;;;;;;;7.53;2.25;;;;;;;29.21;100.00;101345.94;20842218;28;20041;-70
2023/09/29 09:27:28;;;;;;;10.05;2.10;;;;;;;28.83;100.00;101334.31;20914856;28;20045;-70
2023/09/29 09:37:53;;;;;;;6.75;2.15;;;;;;;28.79;100.00;101330.00;20913339;28;20544;-69
2023/09/29 09:48:20;;;;;;;5.55;2.10;;;;;;;29.22;100.00;101323.19;20889526;28;20459;-70
2023/09/29 09:58:47;;;;;;;4.85;2.17;;;;;;;29.30;100.00;101315.50;20873780;28;20041;-70
2023/09/29 10:09:11;;;;;;;6.70;2.05;;;;;;;30.28;97.68;101309.16;20870773;28;20045;-69
2023/09/29 10:19:38;;;;;;;4.75;1.90;;;;;;;29.83;87.58;101304.44;20893606;28;20136;-69
2023/09/29 10:30:15;;;;;;;5.40;1.85;;;;;;;29.24;87.83;101288.63;20878813;28;20136;-69
2023/09/29 10:40:41;;;;;;;6.90;2.70;;;;;;;28.51;94.48;101293.31;20874857;28;20144;-69
2023/09/29 10:51:04;;;;;;;9.38;4.00;;;;;;;28.17;100.00;101301.34;20877050;28;20049;-69
2023/09/29 11:01:32;;;;;;;11.18;4.13;;;;;;;27.85;100.00;101286.59;20860136;28;20123;-70
2023/09/29 11:11:55;;;;;;;10.10;4.97;;;;;;;27.56;100.00;101282.56;20891741;28;20064;-69
2023/09/29 11:22:20;;;;;;;11.38;5.25;;;;;;;28.13;100.00;101272.56;20876923;28;20052;-70
2023/09/29 11:32:43;;;;;;;11.13;5.22;;;;;;;28.08;100.00;101271.91;20872918;28;20064;-69
2023/09/29 11:43:08;;;;;;;11.60;4.75;;;;;;;28.02;100.00;101258.66;20918110;28;20575;-69
2023/09/29 11:53:31;;;;;;;9.63;4.00;;;;;;;28.45;100.00;101254.69;20856693;28;20103;-69
2023/09/29 12:03:57;;;;;;;11.07;2.90;;;;;;;28.25;100.00;101231.25;20926680;28;20587;-70
2023/09/29 12:14:20;;;;;;;8.47;3.40;;;;;;;28.15;100.00;101227.25;20888534;28;20489;-70
2023/09/29 12:24:46;;;;;;;8.45;3.22;;;;;;;28.09;98.78;101227.53;20916776;28;20047;-69
2023/09/29 12:35:12;;;;;;;11.05;4.35;;;;;;;28.07;98.90;101216.72;20874134;28;20397;-70
2023/09/29 12:45:37;;;;;;;9.60;4.03;;;;;;;28.38;100.00;101212.50;20903596;28;20048;-69
2023/09/29 12:56:01;;;;;;;9.10;3.58;;;;;;;28.52;99.84;101209.94;20919630;28;20107;-69
2023/09/29 13:06:25;;;;;;;13.40;5.53;;;;;;;28.36;100.00;101198.09;20880196;28;20053;-69
2023/09/29 13:16:48;;;;;;;8.57;4.60;;;;;;;28.07;100.00;101203.16;20925781;28;20052;-69
2023/09/29 13:27:14;;;;;;;9.77;4.93;;;;;;;27.90;100.00;101196.78;20884718;28;20051;-69
2023/09/29 13:37:37;;;;;;;11.10;5.57;;;;;;;27.43;100.00;101199.94;20885144;28;20049;-69
2023/09/29 13:48:02;;;;;;;12.52;5.22;;;;;;;27.15;100.00;101203.06;20884875;28;20106;-70
2023/09/29 13:58:25;;;;;;;14.25;7.50;;;;;;;25.83;100.00;101213.28;20841145;28;20056;-67
2023/09/29 14:08:50;;;;;;;12.93;7.43;;;;;;;25.35;100.00;101225.91;20886417;28;20056;-67
2023/09/29 14:19:13;;;;;;;14.45;7.60;;;;;;;25.23;100.00;101230.91;20895369;28;20729;-68
2023/09/29 14:29:38;;;;;;;18.55;9.35;;;;;;;24.45;100.00;101243.59;20866885;28;20080;-67
2023/09/29 14:40:00;;;;;;;20.23;11.25;;;;;;;24.18;100.00;101256.16;20895730;28;20045;-70
2023/09/29 14:50:25;;;;;;;14.07;8.20;;;;;;;24.30;100.00;101247.69;20898203;28;20126;-70
2023/09/29 15:00:48;;;;;;;15.20;7.72;;;;;;;24.21;100.00;101250.69;20876040;28;20053;-70
2023/09/29 15:11:18;;;;;;;15.00;8.07;;;;;;;24.27;100.00;101246.91;20880385;28;20060;-70
2023/09/29 15:21:41;;;;;;;15.48;8.70;;;;;;;24.35;100.00;101261.91;20874025;28;20052;-70
2023/09/29 15:32:06;;;;;;;37.72;10.98;;;;;;;24.01;100.00;101266.63;20896077;28;20069;-70
2023/09/29 16:06:11;;;;;;;23.15;14.77;;;;;;;23.29;100.00;101259.78;21292774;27;20424;-75
2023/09/29 16:16:36;;;;;;;20.25;13.00;;;;;;;23.22;100.00;101267.16;21204369;27;20079;-74
2023/09/29 16:27:03;;;;;;;19.80;13.60;;;;;;;23.12;100.00;101279.13;21208125;27;20126;-74
2023/09/29 16:37:26;;;;;;;19.42;12.82;;;;;;;23.12;100.00;101279.13;21190069;27;20136;-73
2023/09/29 16:47:51;;;;;;;19.63;12.77;;;;;;;23.08;100.00;101295.41;21213190;27;20047;-72
2023/09/29 16:58:14;;;;;;;19.52;12.43;;;;;;;22.99;100.00;101305.50;21235029;27;20520;-72
2023/09/29 17:08:39;;;;;;;18.90;12.48;;;;;;;22.98;100.00;101313.63;21207601;27;20439;-72
2023/09/29 17:19:02;;;;;;;19.13;13.45;;;;;;;22.88;100.00;101310.31;21173991;27;20063;-72
